createdAt,value
2023-03-26T00:02:15.949Z,98503.39
2023-03-26T00:04:47.174Z,98502.23
2023-03-26T00:07:16.595Z,98496.80
2023-03-26T00:09:45.561Z,98494.66
2023-03-26T00:12:19.293Z,98492.80
2023-03-26T00:14:53.197Z,98491.92
2023-03-26T00:17:22.524Z,98494.41
2023-03-26T00:19:54.124Z,98493.86
2023-03-26T00:22:24.192Z,98491.95
2023-03-26T00:24:53.056Z,98490.17
2023-03-26T00:27:22.026Z,98487.38
2023-03-26T00:29:51.160Z,98487.70
2023-03-26T00:32:20.080Z,98480.93
2023-03-26T00:34:49.121Z,98480.29
2023-03-26T00:37:18.845Z,98480.55
2023-03-26T00:39:49.658Z,98480.50
2023-03-26T00:42:19.021Z,98482.17
2023-03-26T00:44:48.593Z,98481.41
2023-03-26T00:47:18.179Z,98479.89
2023-03-26T00:49:49.363Z,98479.63
2023-03-26T00:52:21.576Z,98480.94
2023-03-26T00:54:56.744Z,98474.80
2023-03-26T00:57:36.040Z,98475.27
2023-03-26T01:00:17.164Z,98472.84
2023-03-26T01:02:47.454Z,98475.27
2023-03-26T01:05:35.937Z,98478.73
2023-03-26T01:08:15.788Z,98478.58
2023-03-26T01:10:51.321Z,98472.84
2023-03-26T01:13:22.059Z,98479.60
2023-03-26T01:15:51.598Z,98484.36
2023-03-26T01:18:26.858Z,98477.70
2023-03-26T01:21:05.616Z,98476.90
2023-03-26T01:23:40.832Z,98473.58
2023-03-26T01:26:12.843Z,98465.80
2023-03-26T01:28:45.457Z,98461.75
2023-03-26T01:31:37.565Z,98459.61
2023-03-26T01:34:12.975Z,98458.34
2023-03-26T01:36:43.803Z,98460.31
2023-03-26T01:39:28.184Z,98460.39
2023-03-26T01:42:05.560Z,98459.45
2023-03-26T01:44:44.248Z,98459.29
2023-03-26T01:47:13.289Z,98454.48
2023-03-26T01:49:42.524Z,98453.71
2023-03-26T01:52:13.405Z,98451.02
2023-03-26T01:54:47.061Z,98445.78
2023-03-26T01:57:20.883Z,98447.03
2023-03-26T02:00:13.467Z,98454.69
2023-03-26T02:03:05.003Z,98457.00
2023-03-26T02:05:44.296Z,98443.71
2023-03-26T02:08:21.561Z,98443.42
2023-03-26T02:10:52.180Z,98444.25
2023-03-26T02:13:21.375Z,98440.37
2023-03-26T02:15:57.829Z,98439.09
2023-03-26T02:18:36.589Z,98435.11
2023-03-26T02:21:12.795Z,98433.17
2023-03-26T02:23:42.952Z,98436.45
2023-03-26T02:26:11.843Z,98434.45
2023-03-26T02:28:50.521Z,98437.65
2023-03-26T02:31:22.262Z,98447.78
2023-03-26T02:33:51.541Z,98450.56
2023-03-26T02:36:25.481Z,98453.22
2023-03-26T02:38:58.372Z,98461.86
2023-03-26T02:41:29.704Z,98467.84
2023-03-26T02:44:02.370Z,98468.98
2023-03-26T02:46:52.201Z,98479.73
2023-03-26T02:49:43.773Z,98479.21
2023-03-26T02:52:19.026Z,98485.05
2023-03-26T02:54:56.679Z,98483.09
2023-03-26T02:57:27.289Z,98487.60
2023-03-26T03:00:23.155Z,98496.28
2023-03-26T03:03:12.024Z,98503.15
2023-03-26T03:06:04.327Z,98504.63
2023-03-26T03:08:47.707Z,98518.73
2023-03-26T03:11:43.801Z,98530.39
2023-03-26T03:14:12.793Z,98534.44
2023-03-26T03:16:44.445Z,98538.65
2023-03-26T03:19:13.757Z,98542.42
2023-03-26T03:21:47.071Z,98546.51
2023-03-26T03:24:18.858Z,98553.33
2023-03-26T03:26:50.757Z,98558.27
2023-03-26T03:29:57.401Z,98557.61
2023-03-26T03:32:47.769Z,98557.66
2023-03-26T03:35:21.705Z,98568.46
2023-03-26T03:37:53.512Z,98573.64
2023-03-26T03:40:22.766Z,98580.42
2023-03-26T03:42:52.373Z,98584.65
2023-03-26T03:45:29.439Z,98590.38
2023-03-26T03:48:24.648Z,98596.86
2023-03-26T03:50:54.979Z,98600.08
2023-03-26T03:53:37.489Z,98604.03
2023-03-26T03:56:26.890Z,98601.06
2023-03-26T03:59:18.420Z,98600.80
2023-03-26T04:01:48.899Z,98607.50
2023-03-26T04:04:39.007Z,98608.27
2023-03-26T04:07:12.507Z,98617.10
2023-03-26T04:10:03.040Z,98617.98
2023-03-26T04:12:44.136Z,98624.77
2023-03-26T04:15:18.309Z,98630.48
2023-03-26T04:17:48.351Z,98632.72
2023-03-26T04:20:20.021Z,98634.60
2023-03-26T04:22:50.365Z,98630.29
2023-03-26T04:25:30.937Z,98631.95
2023-03-26T04:28:09.221Z,98632.94
2023-03-26T04:31:01.393Z,98637.89
2023-03-26T04:33:39.738Z,98646.74
2023-03-26T04:36:09.570Z,98645.90
2023-03-26T04:38:41.060Z,98644.44
2023-03-26T04:41:14.222Z,98651.63
2023-03-26T04:43:51.103Z,98659.26
2023-03-26T04:46:44.259Z,98667.54
2023-03-26T04:49:35.539Z,98671.81
2023-03-26T04:52:05.092Z,98679.70
2023-03-26T04:54:54.480Z,98679.56
2023-03-26T04:57:26.272Z,98686.59
2023-03-26T05:00:16.862Z,98685.96
2023-03-26T05:02:56.442Z,98688.35
2023-03-26T05:05:26.476Z,98688.67
2023-03-26T05:07:55.836Z,98689.74
2023-03-26T05:10:27.142Z,98692.51
2023-03-26T05:13:08.137Z,98695.80
2023-03-26T05:15:40.879Z,98696.89
2023-03-26T05:18:11.091Z,98694.75
2023-03-26T05:20:44.026Z,98703.27
2023-03-26T05:23:14.499Z,98708.32
2023-03-26T05:25:47.765Z,98710.42
2023-03-26T05:28:24.891Z,98711.48
2023-03-26T05:31:01.549Z,98725.31
2023-03-26T05:33:34.574Z,98735.38
2023-03-26T05:36:20.017Z,98728.50
2023-03-26T05:38:52.871Z,98735.85
2023-03-26T05:41:47.903Z,98732.58
2023-03-26T05:44:23.820Z,98733.65
2023-03-26T05:46:52.850Z,98730.66
2023-03-26T05:49:25.305Z,98728.52
2023-03-26T05:52:00.920Z,98727.89
2023-03-26T05:54:38.890Z,98729.87
2023-03-26T05:57:28.908Z,98736.20
2023-03-26T06:00:19.132Z,98731.05
2023-03-26T06:02:49.127Z,98723.11
2023-03-26T06:05:40.317Z,98730.59
2023-03-26T06:08:22.587Z,98730.71
2023-03-26T06:11:13.771Z,98738.91
2023-03-26T06:13:42.801Z,98740.20
2023-03-26T06:16:26.320Z,98742.16
2023-03-26T06:19:09.439Z,98746.64
2023-03-26T06:21:51.378Z,98749.27
2023-03-26T06:24:32.229Z,98750.67
2023-03-26T06:27:24.663Z,98757.44
2023-03-26T06:30:13.698Z,98761.08
2023-03-26T06:32:55.943Z,98761.79
2023-03-26T06:35:30.370Z,98766.52
2023-03-26T06:37:59.246Z,98762.77
2023-03-26T06:40:31.667Z,98757.89
2023-03-26T06:43:18.876Z,98756.30
2023-03-26T06:46:05.873Z,98759.70
2023-03-26T06:48:43.050Z,98758.33
2023-03-26T06:51:50.256Z,98758.08
2023-03-26T06:54:39.154Z,98762.26
2023-03-26T06:57:28.262Z,98764.23
2023-03-26T07:00:26.560Z,98767.55
2023-03-26T07:03:14.457Z,98766.25
2023-03-26T07:06:04.509Z,98766.90
2023-03-26T07:08:51.921Z,98763.32
2023-03-26T07:11:39.325Z,98761.23
2023-03-26T07:14:47.476Z,98765.64
2023-03-26T07:17:28.163Z,98761.86
2023-03-26T07:20:06.458Z,98765.16
2023-03-26T07:22:36.526Z,98763.45
2023-03-26T07:25:17.197Z,98763.77
2023-03-26T07:28:01.297Z,98765.17
2023-03-26T07:31:35.233Z,98763.89
2023-03-26T07:34:27.365Z,98761.59
2023-03-26T07:37:24.319Z,98756.38
2023-03-26T07:40:26.408Z,98754.08
2023-03-26T07:43:18.117Z,98760.39
2023-03-26T07:46:28.229Z,98761.88
2023-03-26T07:49:22.515Z,98755.66
2023-03-26T07:52:24.119Z,98756.45
2023-03-26T07:55:01.644Z,98754.14
2023-03-26T07:57:55.420Z,98758.85
2023-03-26T08:00:37.631Z,98757.42
2023-03-26T08:03:11.215Z,98759.20
2023-03-26T08:06:15.241Z,98765.75
2023-03-26T08:09:37.001Z,98769.58
2023-03-26T08:12:48.973Z,98780.42
2023-03-26T08:15:23.027Z,98784.60
2023-03-26T08:17:54.873Z,98782.47
2023-03-26T08:20:28.646Z,98784.56
2023-03-26T08:23:17.883Z,98792.92
2023-03-26T08:25:54.597Z,98804.96
2023-03-26T08:28:35.780Z,98806.37
2023-03-26T08:31:05.833Z,98800.98
2023-03-26T08:33:36.487Z,98794.30
2023-03-26T08:36:09.767Z,98793.18
2023-03-26T08:38:38.821Z,98785.08
2023-03-26T08:41:17.541Z,98787.73
2023-03-26T08:43:49.112Z,98787.20
2023-03-26T08:46:18.847Z,98785.04
2023-03-26T08:49:06.512Z,98784.45
2023-03-26T08:51:42.238Z,98784.19
2023-03-26T08:54:24.432Z,98783.48
2023-03-26T08:57:11.970Z,98784.91
2023-03-26T08:59:40.625Z,98789.38
2023-03-26T09:02:20.013Z,98792.66
2023-03-26T09:04:54.134Z,98793.90
2023-03-26T09:07:22.851Z,98791.89
2023-03-26T09:09:58.643Z,98786.77
2023-03-26T09:12:28.650Z,98787.54
2023-03-26T09:15:16.564Z,98786.45
2023-03-26T09:17:56.665Z,98783.40
2023-03-26T09:20:29.699Z,98784.66
2023-03-26T09:23:06.628Z,98788.81
2023-03-26T09:25:46.751Z,98786.29
2023-03-26T09:28:29.274Z,98789.52
2023-03-26T09:31:13.458Z,98794.37
2023-03-26T09:33:52.640Z,98795.71
2023-03-26T09:36:39.787Z,98788.41
2023-03-26T09:39:14.794Z,98788.20
2023-03-26T09:42:05.365Z,98785.70
2023-03-26T09:44:53.728Z,98779.52
2023-03-26T09:47:35.410Z,98779.58
2023-03-26T09:50:19.975Z,98775.60
2023-03-26T09:52:50.830Z,98769.50
2023-03-26T09:55:40.834Z,98768.30
2023-03-26T09:58:18.935Z,98766.29
2023-03-26T10:01:09.191Z,98764.59
2023-03-26T10:03:46.635Z,98771.02
2023-03-26T10:06:53.882Z,98770.47
2023-03-26T10:09:37.968Z,98774.23
2023-03-26T10:12:12.491Z,98773.48
2023-03-26T10:15:00.119Z,98770.91
2023-03-26T10:17:48.568Z,98762.95
2023-03-26T10:20:40.821Z,98769.51
2023-03-26T10:23:27.455Z,98771.40
2023-03-26T10:25:57.217Z,98766.92
2023-03-26T10:28:45.698Z,98769.27
2023-03-26T10:31:26.696Z,98773.53
2023-03-26T10:34:10.291Z,98780.45
2023-03-26T10:36:57.931Z,98784.49
2023-03-26T10:39:45.863Z,98786.07
2023-03-26T10:42:14.451Z,98787.95
2023-03-26T10:44:45.333Z,98789.77
2023-03-26T10:47:35.747Z,98789.67
2023-03-26T10:52:28.222Z,98783.84
2023-03-26T10:55:17.357Z,98786.35
2023-03-26T10:57:53.469Z,98781.18
2023-03-26T11:00:29.602Z,98785.32
2023-03-26T11:03:33.849Z,98784.70
2023-03-26T11:06:20.611Z,98789.33
2023-03-26T11:09:08.821Z,98793.42
2023-03-26T11:11:53.108Z,98793.02
2023-03-26T11:14:48.946Z,98790.58
2023-03-26T11:17:39.485Z,98788.88
2023-03-26T11:20:11.599Z,98786.85
2023-03-26T11:22:56.249Z,98781.34
2023-03-26T11:25:59.493Z,98783.91
2023-03-26T11:29:05.615Z,98780.23
2023-03-26T11:31:49.764Z,98786.29
2023-03-26T11:34:21.291Z,98785.37
2023-03-26T11:36:52.962Z,98782.45
2023-03-26T11:39:27.581Z,98778.66
2023-03-26T11:42:11.574Z,98779.57
2023-03-26T11:44:56.886Z,98782.50
2023-03-26T11:47:48.871Z,98782.34
2023-03-26T11:50:33.069Z,98783.48
2023-03-26T11:53:18.080Z,98778.83
2023-03-26T11:55:49.539Z,98774.90
2023-03-26T11:58:34.266Z,98765.80
2023-03-26T12:01:13.656Z,98764.59
2023-03-26T12:03:44.294Z,98757.31
2023-03-26T12:06:33.445Z,98748.01
2023-03-26T12:09:03.042Z,98752.23
2023-03-26T12:11:35.602Z,98753.06
2023-03-26T12:14:05.026Z,98752.10
2023-03-26T12:16:38.305Z,98747.48
2023-03-26T12:19:19.473Z,98750.48
2023-03-26T12:21:50.222Z,98742.56
2023-03-26T12:24:30.086Z,98741.25
2023-03-26T12:27:22.432Z,98736.34
2023-03-26T12:30:11.219Z,98740.43
2023-03-26T12:32:46.410Z,98739.89
2023-03-26T12:35:29.660Z,98745.34
2023-03-26T12:38:23.552Z,98750.26
2023-03-26T12:41:08.980Z,98749.39
2023-03-26T12:44:53.671Z,98749.66
2023-03-26T12:47:57.979Z,98738.60
2023-03-26T12:49:47.080Z,98731.68
2023-03-26T12:52:34.626Z,98729.73
2023-03-26T12:55:26.973Z,98727.88
2023-03-26T12:58:00.345Z,98727.45
2023-03-26T13:00:57.706Z,98724.34
2023-03-26T13:03:38.307Z,98722.77
2023-03-26T13:06:28.121Z,98721.67
2023-03-26T13:09:20.287Z,98723.59
2023-03-26T13:12:02.213Z,98725.48
2023-03-26T13:14:35.757Z,98723.25
2023-03-26T13:17:10.434Z,98726.84
2023-03-26T13:19:53.895Z,98727.34
2023-03-26T13:22:36.491Z,98730.59
2023-03-26T13:25:19.333Z,98731.66
2023-03-26T13:28:16.540Z,98730.13
2023-03-26T13:30:52.487Z,98731.96
2023-03-26T13:33:32.743Z,98725.87
2023-03-26T13:36:23.882Z,98721.29
2023-03-26T13:38:58.578Z,98716.89
2023-03-26T13:42:00.045Z,98713.96
2023-03-26T13:44:34.151Z,98713.79
2023-03-26T13:47:07.946Z,98713.73
2023-03-26T13:49:37.762Z,98716.58
2023-03-26T13:52:08.978Z,98714.54
2023-03-26T13:55:24.081Z,98717.05
2023-03-26T13:58:02.538Z,98709.15
2023-03-26T14:00:38.676Z,98709.45
2023-03-26T14:03:22.311Z,98712.87
2023-03-26T14:05:52.572Z,98710.42
2023-03-26T14:08:33.343Z,98713.85
2023-03-26T14:11:21.301Z,98719.02
2023-03-26T14:13:55.184Z,98723.95
2023-03-26T14:16:47.408Z,98732.09
2023-03-26T14:19:22.079Z,98738.70
2023-03-26T14:21:58.826Z,98739.23
2023-03-26T14:24:43.014Z,98733.02
2023-03-26T14:27:30.416Z,98731.89
2023-03-26T14:30:18.257Z,98729.82
2023-03-26T14:33:28.250Z,98727.92
2023-03-26T14:36:10.258Z,98726.33
2023-03-26T14:39:14.532Z,98727.50
2023-03-26T14:41:49.802Z,98726.80
2023-03-26T14:44:49.245Z,98723.28
2023-03-26T14:47:21.356Z,98729.81
2023-03-26T14:50:06.928Z,98726.04
2023-03-26T14:52:52.143Z,98730.13
2023-03-26T14:55:35.917Z,98723.65
2023-03-26T14:58:28.346Z,98724.95
2023-03-26T15:01:20.517Z,98724.86
2023-03-26T15:04:10.165Z,98718.64
2023-03-26T15:06:58.799Z,98718.34
2023-03-26T15:09:49.456Z,98716.23
2023-03-26T15:12:41.573Z,98720.13
2023-03-26T15:15:38.530Z,98727.10
2023-03-26T15:18:31.721Z,98740.85
2023-03-26T15:21:01.173Z,98740.73
2023-03-26T15:23:53.412Z,98743.57
2023-03-26T15:26:47.196Z,98748.31
2023-03-26T15:29:42.756Z,98752.89
2023-03-26T15:32:30.604Z,98749.95
2023-03-26T15:35:17.974Z,98747.06
2023-03-26T15:37:53.164Z,98746.98
2023-03-26T15:40:31.160Z,98741.79
2023-03-26T15:43:16.662Z,98734.71
2023-03-26T15:45:47.912Z,98731.82
2023-03-26T15:48:26.311Z,98740.02
2023-03-26T15:51:04.203Z,98741.35
2023-03-26T15:53:54.231Z,98735.45
2023-03-26T15:56:26.284Z,98738.24
2023-03-26T15:59:05.698Z,98738.63
2023-03-26T16:01:46.702Z,98739.39
2023-03-26T16:04:22.427Z,98743.49
2023-03-26T16:06:58.971Z,98751.21
2023-03-26T16:09:42.637Z,98757.05
2023-03-26T16:12:17.585Z,98763.42
2023-03-26T16:15:16.214Z,98762.45
2023-03-26T16:18:05.516Z,98766.54
2023-03-26T16:20:36.062Z,98771.86
2023-03-26T16:23:07.420Z,98773.20
2023-03-26T16:25:55.149Z,98778.19
2023-03-26T16:28:30.939Z,98781.52
2023-03-26T16:31:37.010Z,98784.05
2023-03-26T16:34:19.432Z,98790.98
2023-03-26T16:36:51.969Z,98793.67
2023-03-26T16:39:44.632Z,98793.67
2023-03-26T16:42:28.399Z,98796.46
2023-03-26T16:45:05.046Z,98800.64
2023-03-26T16:47:42.263Z,98801.27
2023-03-26T16:50:35.848Z,98804.30
2023-03-26T16:53:25.092Z,98805.70
2023-03-26T16:56:07.514Z,98810.48
2023-03-26T16:59:17.349Z,98809.95
2023-03-26T17:01:48.633Z,98813.06
2023-03-26T17:04:23.974Z,98813.36
2023-03-26T17:07:09.628Z,98817.17
2023-03-26T17:09:58.872Z,98824.41
2023-03-26T17:12:34.315Z,98830.11
2023-03-26T17:15:29.387Z,98830.80
2023-03-26T17:18:22.431Z,98827.05
2023-03-26T17:21:06.972Z,98834.38
2023-03-26T17:23:42.772Z,98836.63
2023-03-26T17:26:28.459Z,98839.70
2023-03-26T17:29:18.208Z,98840.45
2023-03-26T17:31:58.993Z,98837.17
2023-03-26T17:34:39.644Z,98843.53
2023-03-26T17:37:31.139Z,98844.54
2023-03-26T17:40:10.051Z,98846.58
2023-03-26T17:42:39.371Z,98842.91
2023-03-26T17:45:20.872Z,98845.23
2023-03-26T17:48:02.958Z,98842.58
2023-03-26T17:50:34.264Z,98845.23
2023-03-26T17:53:07.952Z,98837.55
2023-03-26T17:55:39.983Z,98837.03
2023-03-26T17:58:58.974Z,98835.25
2023-03-26T18:01:41.824Z,98837.89
2023-03-26T18:04:18.949Z,98836.30
2023-03-26T18:07:15.768Z,98833.23
2023-03-26T18:10:10.975Z,98835.30
2023-03-26T18:12:58.917Z,98838.02
2023-03-26T18:15:39.630Z,98837.41
2023-03-26T18:18:28.613Z,98838.01
2023-03-26T18:20:58.021Z,98841.91
2023-03-26T18:23:36.108Z,98841.33
2023-03-26T18:26:15.908Z,98842.40
2023-03-26T18:28:53.533Z,98840.80
2023-03-26T18:31:25.579Z,98835.95
2023-03-26T18:33:59.469Z,98842.25
2023-03-26T18:36:28.862Z,98843.11
2023-03-26T18:39:01.630Z,98842.73
2023-03-26T18:41:42.143Z,98844.90
2023-03-26T18:44:16.300Z,98845.80
2023-03-26T18:46:45.739Z,98844.64
2023-03-26T18:49:16.319Z,98842.80
2023-03-26T18:51:56.718Z,98849.80
2023-03-26T18:54:26.629Z,98847.27
2023-03-26T18:56:55.707Z,98849.31
2023-03-26T18:59:28.419Z,98846.68
2023-03-26T19:02:05.678Z,98848.11
2023-03-26T19:04:35.425Z,98842.98
2023-03-26T19:07:10.428Z,98846.31
2023-03-26T19:09:40.629Z,98851.36
2023-03-26T19:12:21.205Z,98851.27
2023-03-26T19:15:17.805Z,98852.89
2023-03-26T19:17:49.388Z,98849.37
2023-03-26T19:20:27.073Z,98847.02
2023-03-26T19:22:57.381Z,98844.63
2023-03-26T19:25:29.882Z,98846.14
2023-03-26T19:27:59.662Z,98849.45
2023-03-26T19:30:34.353Z,98846.63
2023-03-26T19:33:12.844Z,98846.52
2023-03-26T19:35:43.685Z,98843.89
2023-03-26T19:38:19.615Z,98844.10
2023-03-26T19:40:49.129Z,98841.56
2023-03-26T19:43:18.321Z,98838.83
2023-03-26T19:45:59.357Z,98834.93
2023-03-26T19:48:46.132Z,98834.69
2023-03-26T19:51:32.077Z,98827.27
2023-03-26T19:54:06.652Z,98828.50
2023-03-26T19:56:36.679Z,98831.55
2023-03-26T19:59:08.621Z,98830.59
2023-03-26T20:01:38.958Z,98829.26
2023-03-26T20:04:10.557Z,98829.96
2023-03-26T20:06:44.144Z,98829.59
2023-03-26T20:09:14.553Z,98825.52
2023-03-26T20:11:43.542Z,98826.59
2023-03-26T20:14:22.133Z,98828.38
2023-03-26T20:16:51.137Z,98828.20
2023-03-26T20:19:21.135Z,98827.40
2023-03-26T20:21:56.064Z,98826.14
2023-03-26T20:24:25.865Z,98826.64
2023-03-26T20:26:55.033Z,98828.92
2023-03-26T20:29:23.953Z,98828.88
2023-03-26T20:31:52.819Z,98832.98
2023-03-26T20:34:24.706Z,98832.05
2023-03-26T20:37:01.408Z,98835.77
2023-03-26T20:39:31.377Z,98833.06
2023-03-26T20:42:01.219Z,98837.09
2023-03-26T20:44:31.117Z,98839.41
2023-03-26T20:47:00.676Z,98840.02
2023-03-26T20:49:30.434Z,98834.77
2023-03-26T20:52:00.936Z,98835.77
2023-03-26T20:54:32.076Z,98836.96
2023-03-26T20:57:00.993Z,98836.60
2023-03-26T20:59:33.520Z,98836.67
2023-03-26T21:02:02.509Z,98844.75
2023-03-26T21:04:32.554Z,98846.86
2023-03-26T21:07:10.988Z,98845.15
2023-03-26T21:09:49.631Z,98842.39
2023-03-26T21:12:28.447Z,98846.66
2023-03-26T21:14:58.977Z,98842.69
2023-03-26T21:17:28.961Z,98849.34
2023-03-26T21:20:03.049Z,98846.63
2023-03-26T21:22:44.914Z,98846.78
2023-03-26T21:25:46.468Z,98843.52
2023-03-26T21:28:35.727Z,98842.60
2023-03-26T21:31:19.482Z,98843.99
2023-03-26T21:33:49.801Z,98841.89
2023-03-26T21:36:20.260Z,98847.63
2023-03-26T21:38:51.021Z,98852.13
2023-03-26T21:41:36.287Z,98850.19
2023-03-26T21:44:05.987Z,98851.02
2023-03-26T21:46:35.390Z,98856.37
2023-03-26T21:49:06.422Z,98857.20
2023-03-26T21:51:36.874Z,98854.46
2023-03-26T21:54:23.241Z,98857.05
2023-03-26T21:57:17.934Z,98859.41
2023-03-26T22:00:33.579Z,98864.58
2023-03-26T22:03:19.732Z,98860.19
2023-03-26T22:05:57.865Z,98863.48
2023-03-26T22:08:37.149Z,98864.35
2023-03-26T22:11:07.531Z,98861.29
2023-03-26T22:13:36.295Z,98859.67
2023-03-26T22:16:07.324Z,98853.48
2023-03-26T22:18:36.329Z,98853.36
2023-03-26T22:21:06.206Z,98848.02
2023-03-26T22:23:36.778Z,98849.02
2023-03-26T22:26:06.228Z,98851.70
2023-03-26T22:28:35.717Z,98842.82
2023-03-26T22:31:09.274Z,98847.70
2023-03-26T22:33:40.479Z,98846.70
2023-03-26T22:36:23.279Z,98851.95
2023-03-26T22:38:54.333Z,98842.27
2023-03-26T22:41:24.901Z,98846.64
2023-03-26T22:43:54.906Z,98846.48
2023-03-26T22:46:25.002Z,98849.87
2023-03-26T22:48:54.595Z,98845.64
2023-03-26T22:51:28.610Z,98840.34
2023-03-26T22:53:57.826Z,98847.64
2023-03-26T22:56:26.738Z,98840.39
2023-03-26T22:58:55.811Z,98841.42
2023-03-26T23:01:25.259Z,98830.21
2023-03-26T23:03:54.818Z,98826.81
2023-03-26T23:06:23.746Z,98829.63
2023-03-26T23:08:52.793Z,98836.95
2023-03-26T23:11:22.499Z,98838.02
2023-03-26T23:13:52.334Z,98834.84
2023-03-26T23:16:21.947Z,98838.23
2023-03-26T23:18:50.981Z,98834.77
2023-03-26T23:21:21.465Z,98828.09
2023-03-26T23:23:52.483Z,98826.36
2023-03-26T23:26:24.457Z,98828.23
2023-03-26T23:28:54.480Z,98821.54
2023-03-26T23:31:26.206Z,98822.16
2023-03-26T23:33:55.376Z,98821.72
2023-03-26T23:36:24.413Z,98821.34
2023-03-26T23:38:56.735Z,98822.55
2023-03-26T23:41:25.772Z,98819.52
2023-03-26T23:43:55.825Z,98814.61
2023-03-26T23:46:31.122Z,98817.20
2023-03-26T23:49:02.738Z,98814.52
2023-03-26T23:51:36.402Z,98813.66
2023-03-26T23:54:05.672Z,98809.56
2023-03-26T23:56:40.884Z,98809.98
2023-03-26T23:59:10.157Z,98807.23
